sensor_id;sensor_type;location;lat;lon;timestamp;P1;durP1;ratioP1;P2;durP2;ratioP2
2848;SDS011;59355;52.416;13.412;2022-10-16T00:01:10;4.60;;;4.20;;
2848;SDS011;59355;52.416;13.412;2022-10-16T00:03:37;4.67;;;4.27;;
2848;SDS011;59355;52.416;13.412;2022-10-16T00:06:03;4.30;;;4.00;;
2848;SDS011;59355;52.416;13.412;2022-10-16T00:08:29;4.50;;;4.10;;
2848;SDS011;59355;52.416;13.412;2022-10-16T00:10:59;5.10;;;4.70;;
2848;SDS011;59355;52.416;13.412;2022-10-16T00:13:29;5.00;;;4.60;;
2848;SDS011;59355;52.416;13.412;2022-10-16T00:15:55;7.53;;;4.50;;
2848;SDS011;59355;52.416;13.412;2022-10-16T00:18:21;4.63;;;4.23;;
2848;SDS011;59355;52.416;13.412;2022-10-16T00:20:46;5.40;;;4.67;;
2848;SDS011;59355;52.416;13.412;2022-10-16T00:23:12;4.67;;;4.27;;
2848;SDS011;59355;52.416;13.412;2022-10-16T00:25:37;6.03;;;5.00;;
2848;SDS011;59355;52.416;13.412;2022-10-16T00:28:03;5.30;;;4.90;;
2848;SDS011;59355;52.416;13.412;2022-10-16T00:30:28;4.20;;;3.90;;
2848;SDS011;59355;52.416;13.412;2022-10-16T00:32:54;4.30;;;4.00;;
2848;SDS011;59355;52.416;13.412;2022-10-16T00:35:19;4.60;;;4.20;;
2848;SDS011;59355;52.416;13.412;2022-10-16T00:37:45;4.33;;;4.03;;
2848;SDS011;59355;52.416;13.412;2022-10-16T00:40:10;4.23;;;3.93;;
2848;SDS011;59355;52.416;13.412;2022-10-16T00:42:36;5.20;;;4.80;;
2848;SDS011;59355;52.416;13.412;2022-10-16T00:45:01;4.83;;;4.37;;
2848;SDS011;59355;52.416;13.412;2022-10-16T00:47:32;4.50;;;4.10;;
2848;SDS011;59355;52.416;13.412;2022-10-16T00:50:02;4.00;;;3.70;;
2848;SDS011;59355;52.416;13.412;2022-10-16T00:52:32;4.30;;;4.00;;
2848;SDS011;59355;52.416;13.412;2022-10-16T00:54:57;4.17;;;3.87;;
2848;SDS011;59355;52.416;13.412;2022-10-16T00:57:23;4.20;;;3.90;;
2848;SDS011;59355;52.416;13.412;2022-10-16T00:59:49;4.20;;;3.80;;
2848;SDS011;59355;52.416;13.412;2022-10-16T01:02:15;3.90;;;3.60;;
2848;SDS011;59355;52.416;13.412;2022-10-16T01:04:46;4.73;;;4.33;;
2848;SDS011;59355;52.416;13.412;2022-10-16T01:07:20;4.80;;;4.50;;
2848;SDS011;59355;52.416;13.412;2022-10-16T01:15:23;4.97;;;4.20;;
2848;SDS011;59355;52.416;13.412;2022-10-16T01:17:53;4.70;;;3.90;;
2848;SDS011;59355;52.416;13.412;2022-10-16T01:20:26;4.60;;;4.20;;
2848;SDS011;59355;52.416;13.412;2022-10-16T01:28:56;3.80;;;3.50;;
2848;SDS011;59355;52.416;13.412;2022-10-16T01:31:32;4.00;;;3.70;;
2848;SDS011;59355;52.416;13.412;2022-10-16T01:34:05;5.57;;;4.77;;
2848;SDS011;59355;52.416;13.412;2022-10-16T01:36:56;5.20;;;3.87;;
2848;SDS011;59355;52.416;13.412;2022-10-16T01:39:22;3.60;;;3.30;;
2848;SDS011;59355;52.416;13.412;2022-10-16T01:41:49;3.77;;;3.47;;
2848;SDS011;59355;52.416;13.412;2022-10-16T01:44:19;4.20;;;3.83;;
2848;SDS011;59355;52.416;13.412;2022-10-16T01:46:48;4.00;;;3.70;;
2848;SDS011;59355;52.416;13.412;2022-10-16T01:49:15;3.43;;;3.23;;
2848;SDS011;59355;52.416;13.412;2022-10-16T01:51:41;3.83;;;3.53;;
2848;SDS011;59355;52.416;13.412;2022-10-16T01:54:10;3.67;;;3.37;;
2848;SDS011;59355;52.416;13.412;2022-10-16T01:56:36;3.57;;;3.27;;
2848;SDS011;59355;52.416;13.412;2022-10-16T01:59:06;3.83;;;3.53;;
2848;SDS011;59355;52.416;13.412;2022-10-16T02:01:34;4.10;;;3.70;;
2848;SDS011;59355;52.416;13.412;2022-10-16T02:04:03;4.10;;;3.80;;
2848;SDS011;59355;52.416;13.412;2022-10-16T02:06:33;4.43;;;3.77;;
2848;SDS011;59355;52.416;13.412;2022-10-16T02:09:00;5.97;;;3.97;;
2848;SDS011;59355;52.416;13.412;2022-10-16T02:11:26;4.50;;;4.20;;
2848;SDS011;59355;52.416;13.412;2022-10-16T02:13:53;4.33;;;4.00;;
2848;SDS011;59355;52.416;13.412;2022-10-16T02:16:20;4.30;;;3.93;;
2848;SDS011;59355;52.416;13.412;2022-10-16T02:18:46;4.30;;;3.90;;
2848;SDS011;59355;52.416;13.412;2022-10-16T02:21:25;3.93;;;3.57;;
2848;SDS011;59355;52.416;13.412;2022-10-16T02:23:56;4.40;;;4.10;;
2848;SDS011;59355;52.416;13.412;2022-10-16T02:26:28;6.93;;;4.03;;
2848;SDS011;59355;52.416;13.412;2022-10-16T02:28:58;4.97;;;4.57;;
2848;SDS011;59355;52.416;13.412;2022-10-16T02:31:27;3.53;;;3.23;;
2848;SDS011;59355;52.416;13.412;2022-10-16T02:33:54;4.27;;;3.30;;
2848;SDS011;59355;52.416;13.412;2022-10-16T02:36:20;4.00;;;3.70;;
2848;SDS011;59355;52.416;13.412;2022-10-16T02:38:46;4.30;;;3.90;;
2848;SDS011;59355;52.416;13.412;2022-10-16T02:41:11;7.87;;;4.30;;
2848;SDS011;59355;52.416;13.412;2022-10-16T02:43:36;5.63;;;4.77;;
2848;SDS011;59355;52.416;13.412;2022-10-16T02:46:02;5.10;;;4.60;;
2848;SDS011;59355;52.416;13.412;2022-10-16T02:48:27;4.10;;;3.80;;
2848;SDS011;59355;52.416;13.412;2022-10-16T02:50:53;4.90;;;4.50;;
2848;SDS011;59355;52.416;13.412;2022-10-16T02:53:18;4.53;;;4.17;;
2848;SDS011;59355;52.416;13.412;2022-10-16T02:55:43;4.23;;;3.83;;
2848;SDS011;59355;52.416;13.412;2022-10-16T02:58:09;4.57;;;4.23;;
2848;SDS011;59355;52.416;13.412;2022-10-16T03:00:34;3.90;;;3.50;;
2848;SDS011;59355;52.416;13.412;2022-10-16T03:02:59;4.53;;;4.17;;
2848;SDS011;59355;52.416;13.412;2022-10-16T03:05:24;4.50;;;4.10;;
2848;SDS011;59355;52.416;13.412;2022-10-16T03:07:50;3.87;;;3.50;;
2848;SDS011;59355;52.416;13.412;2022-10-16T03:10:15;3.93;;;3.63;;
2848;SDS011;59355;52.416;13.412;2022-10-16T03:12:40;4.90;;;3.90;;
2848;SDS011;59355;52.416;13.412;2022-10-16T03:15:06;3.93;;;3.57;;
2848;SDS011;59355;52.416;13.412;2022-10-16T03:17:32;4.23;;;3.73;;
2848;SDS011;59355;52.416;13.412;2022-10-16T03:19:57;4.80;;;4.20;;
2848;SDS011;59355;52.416;13.412;2022-10-16T03:22:23;4.10;;;3.40;;
2848;SDS011;59355;52.416;13.412;2022-10-16T03:24:48;4.00;;;3.60;;
2848;SDS011;59355;52.416;13.412;2022-10-16T03:27:13;4.70;;;4.27;;
2848;SDS011;59355;52.416;13.412;2022-10-16T03:29:39;3.80;;;3.30;;
2848;SDS011;59355;52.416;13.412;2022-10-16T03:32:04;4.20;;;3.83;;
2848;SDS011;59355;52.416;13.412;2022-10-16T03:34:29;3.53;;;3.23;;
2848;SDS011;59355;52.416;13.412;2022-10-16T03:36:55;3.77;;;3.47;;
2848;SDS011;59355;52.416;13.412;2022-10-16T03:39:20;4.20;;;3.80;;
2848;SDS011;59355;52.416;13.412;2022-10-16T03:41:45;4.60;;;4.30;;
2848;SDS011;59355;52.416;13.412;2022-10-16T03:44:13;4.23;;;3.93;;
2848;SDS011;59355;52.416;13.412;2022-10-16T03:46:38;4.50;;;3.10;;
2848;SDS011;59355;52.416;13.412;2022-10-16T03:49:04;4.60;;;4.07;;
2848;SDS011;59355;52.416;13.412;2022-10-16T03:51:29;3.93;;;3.63;;
2848;SDS011;59355;52.416;13.412;2022-10-16T03:53:54;4.27;;;3.97;;
2848;SDS011;59355;52.416;13.412;2022-10-16T03:56:20;4.40;;;4.00;;
2848;SDS011;59355;52.416;13.412;2022-10-16T03:58:45;4.00;;;3.60;;
2848;SDS011;59355;52.416;13.412;2022-10-16T04:01:10;3.60;;;3.27;;
2848;SDS011;59355;52.416;13.412;2022-10-16T04:03:36;4.63;;;3.57;;
2848;SDS011;59355;52.416;13.412;2022-10-16T04:06:01;4.33;;;4.03;;
2848;SDS011;59355;52.416;13.412;2022-10-16T04:08:26;6.23;;;3.73;;
2848;SDS011;59355;52.416;13.412;2022-10-16T04:10:52;4.60;;;4.20;;
2848;SDS011;59355;52.416;13.412;2022-10-16T04:13:17;4.77;;;4.37;;
2848;SDS011;59355;52.416;13.412;2022-10-16T04:15:44;4.93;;;4.43;;
2848;SDS011;59355;52.416;13.412;2022-10-16T04:18:09;6.70;;;4.43;;
2848;SDS011;59355;52.416;13.412;2022-10-16T04:20:35;4.33;;;3.73;;
2848;SDS011;59355;52.416;13.412;2022-10-16T04:23:00;4.70;;;4.33;;
2848;SDS011;59355;52.416;13.412;2022-10-16T04:25:25;4.33;;;4.00;;
2848;SDS011;59355;52.416;13.412;2022-10-16T04:27:52;4.63;;;4.23;;
2848;SDS011;59355;52.416;13.412;2022-10-16T04:30:18;4.40;;;4.10;;
2848;SDS011;59355;52.416;13.412;2022-10-16T04:32:47;4.67;;;4.23;;
2848;SDS011;59355;52.416;13.412;2022-10-16T04:35:16;4.30;;;3.37;;
2848;SDS011;59355;52.416;13.412;2022-10-16T04:37:42;4.20;;;3.90;;
2848;SDS011;59355;52.416;13.412;2022-10-16T04:40:07;4.50;;;4.20;;
2848;SDS011;59355;52.416;13.412;2022-10-16T04:42:33;4.00;;;3.70;;
2848;SDS011;59355;52.416;13.412;2022-10-16T04:44:58;3.90;;;3.60;;
2848;SDS011;59355;52.416;13.412;2022-10-16T04:47:23;3.50;;;3.20;;
2848;SDS011;59355;52.416;13.412;2022-10-16T04:49:49;3.97;;;3.57;;
2848;SDS011;59355;52.416;13.412;2022-10-16T04:52:14;3.47;;;3.17;;
2848;SDS011;59355;52.416;13.412;2022-10-16T04:54:39;3.70;;;3.40;;
2848;SDS011;59355;52.416;13.412;2022-10-16T04:57:05;3.70;;;3.40;;
2848;SDS011;59355;52.416;13.412;2022-10-16T04:59:30;3.70;;;3.40;;
2848;SDS011;59355;52.416;13.412;2022-10-16T05:01:55;3.53;;;3.33;;
2848;SDS011;59355;52.416;13.412;2022-10-16T05:04:21;4.50;;;4.03;;
2848;SDS011;59355;52.416;13.412;2022-10-16T05:06:47;4.10;;;3.80;;
2848;SDS011;59355;52.416;13.412;2022-10-16T05:09:12;4.20;;;3.80;;
2848;SDS011;59355;52.416;13.412;2022-10-16T05:11:38;4.03;;;3.73;;
2848;SDS011;59355;52.416;13.412;2022-10-16T05:14:03;4.23;;;3.93;;
2848;SDS011;59355;52.416;13.412;2022-10-16T05:16:28;3.73;;;3.43;;
2848;SDS011;59355;52.416;13.412;2022-10-16T05:18:54;4.10;;;3.80;;
2848;SDS011;59355;52.416;13.412;2022-10-16T05:21:20;4.30;;;3.90;;
2848;SDS011;59355;52.416;13.412;2022-10-16T05:23:45;4.17;;;3.87;;
2848;SDS011;59355;52.416;13.412;2022-10-16T05:26:11;4.17;;;3.87;;
2848;SDS011;59355;52.416;13.412;2022-10-16T05:28:36;4.20;;;3.90;;
2848;SDS011;59355;52.416;13.412;2022-10-16T05:31:05;4.30;;;3.90;;
2848;SDS011;59355;52.416;13.412;2022-10-16T05:33:31;3.57;;;3.27;;
2848;SDS011;59355;52.416;13.412;2022-10-16T05:35:57;4.27;;;3.90;;
2848;SDS011;59355;52.416;13.412;2022-10-16T05:38:22;3.97;;;3.67;;
2848;SDS011;59355;52.416;13.412;2022-10-16T05:40:51;4.53;;;4.13;;
2848;SDS011;59355;52.416;13.412;2022-10-16T05:43:17;4.40;;;4.00;;
2848;SDS011;59355;52.416;13.412;2022-10-16T05:45:42;3.37;;;3.07;;
2848;SDS011;59355;52.416;13.412;2022-10-16T05:48:08;4.20;;;3.80;;
2848;SDS011;59355;52.416;13.412;2022-10-16T05:50:33;4.17;;;3.27;;
2848;SDS011;59355;52.416;13.412;2022-10-16T05:52:58;4.00;;;3.60;;
2848;SDS011;59355;52.416;13.412;2022-10-16T05:55:23;4.20;;;3.90;;
2848;SDS011;59355;52.416;13.412;2022-10-16T05:57:49;4.50;;;4.20;;
2848;SDS011;59355;52.416;13.412;2022-10-16T06:00:14;4.40;;;4.10;;
2848;SDS011;59355;52.416;13.412;2022-10-16T06:02:39;4.30;;;4.00;;
2848;SDS011;59355;52.416;13.412;2022-10-16T06:05:05;4.10;;;3.80;;
2848;SDS011;59355;52.416;13.412;2022-10-16T06:07:33;4.30;;;4.00;;
2848;SDS011;59355;52.416;13.412;2022-10-16T06:09:59;4.83;;;4.43;;
2848;SDS011;59355;52.416;13.412;2022-10-16T06:12:24;3.80;;;3.50;;
2848;SDS011;59355;52.416;13.412;2022-10-16T06:14:51;3.73;;;3.43;;
2848;SDS011;59355;52.416;13.412;2022-10-16T06:17:17;5.00;;;3.77;;
2848;SDS011;59355;52.416;13.412;2022-10-16T06:19:42;4.50;;;4.20;;
2848;SDS011;59355;52.416;13.412;2022-10-16T06:22:07;4.57;;;4.27;;
2848;SDS011;59355;52.416;13.412;2022-10-16T06:24:33;4.17;;;3.80;;
2848;SDS011;59355;52.416;13.412;2022-10-16T06:26:58;4.40;;;4.10;;
2848;SDS011;59355;52.416;13.412;2022-10-16T06:29:23;3.97;;;3.67;;
2848;SDS011;59355;52.416;13.412;2022-10-16T06:31:49;4.23;;;3.93;;
2848;SDS011;59355;52.416;13.412;2022-10-16T06:34:14;4.87;;;3.87;;
2848;SDS011;59355;52.416;13.412;2022-10-16T06:36:39;4.40;;;4.00;;
2848;SDS011;59355;52.416;13.412;2022-10-16T06:39:05;4.63;;;4.23;;
2848;SDS011;59355;52.416;13.412;2022-10-16T06:41:32;4.00;;;3.70;;
2848;SDS011;59355;52.416;13.412;2022-10-16T06:43:57;3.87;;;3.57;;
2848;SDS011;59355;52.416;13.412;2022-10-16T06:46:23;4.60;;;4.17;;
2848;SDS011;59355;52.416;13.412;2022-10-16T06:48:49;3.67;;;3.37;;
2848;SDS011;59355;52.416;13.412;2022-10-16T06:51:15;4.80;;;4.40;;
2848;SDS011;59355;52.416;13.412;2022-10-16T06:53:51;3.80;;;3.60;;
2848;SDS011;59355;52.416;13.412;2022-10-16T06:56:21;4.67;;;4.27;;
2848;SDS011;59355;52.416;13.412;2022-10-16T06:58:48;4.53;;;3.30;;
2848;SDS011;59355;52.416;13.412;2022-10-16T07:01:15;4.37;;;4.00;;
2848;SDS011;59355;52.416;13.412;2022-10-16T07:03:41;3.73;;;3.43;;
2848;SDS011;59355;52.416;13.412;2022-10-16T07:06:08;4.93;;;4.53;;
2848;SDS011;59355;52.416;13.412;2022-10-16T07:08:35;5.47;;;3.47;;
2848;SDS011;59355;52.416;13.412;2022-10-16T07:11:10;4.50;;;4.10;;
2848;SDS011;59355;52.416;13.412;2022-10-16T07:13:37;3.60;;;3.30;;
2848;SDS011;59355;52.416;13.412;2022-10-16T07:18:35;3.63;;;3.33;;
2848;SDS011;59355;52.416;13.412;2022-10-16T07:21:08;4.00;;;3.60;;
2848;SDS011;59355;52.416;13.412;2022-10-16T07:23:34;3.40;;;3.00;;
2848;SDS011;59355;52.416;13.412;2022-10-16T07:26:00;3.30;;;2.90;;
2848;SDS011;59355;52.416;13.412;2022-10-16T07:28:25;2.83;;;2.60;;
2848;SDS011;59355;52.416;13.412;2022-10-16T07:30:51;3.43;;;3.13;;
2848;SDS011;59355;52.416;13.412;2022-10-16T07:33:16;4.53;;;2.97;;
2848;SDS011;59355;52.416;13.412;2022-10-16T07:35:49;2.73;;;2.50;;
2848;SDS011;59355;52.416;13.412;2022-10-16T07:38:15;3.40;;;2.60;;
2848;SDS011;59355;52.416;13.412;2022-10-16T07:40:40;2.67;;;2.47;;
2848;SDS011;59355;52.416;13.412;2022-10-16T07:43:05;2.83;;;2.63;;
2848;SDS011;59355;52.416;13.412;2022-10-16T07:45:31;3.60;;;2.13;;
2848;SDS011;59355;52.416;13.412;2022-10-16T07:47:56;3.27;;;2.57;;
2848;SDS011;59355;52.416;13.412;2022-10-16T07:50:21;4.70;;;2.47;;
2848;SDS011;59355;52.416;13.412;2022-10-16T07:52:47;2.57;;;2.37;;
2848;SDS011;59355;52.416;13.412;2022-10-16T07:55:12;3.50;;;2.63;;
2848;SDS011;59355;52.416;13.412;2022-10-16T07:57:38;2.67;;;2.47;;
2848;SDS011;59355;52.416;13.412;2022-10-16T08:00:03;2.60;;;2.40;;
2848;SDS011;59355;52.416;13.412;2022-10-16T08:02:29;3.20;;;2.60;;
2848;SDS011;59355;52.416;13.412;2022-10-16T08:04:54;2.77;;;2.50;;
2848;SDS011;59355;52.416;13.412;2022-10-16T08:07:20;4.37;;;3.00;;
2848;SDS011;59355;52.416;13.412;2022-10-16T08:09:48;3.13;;;2.23;;
2848;SDS011;59355;52.416;13.412;2022-10-16T08:12:14;2.57;;;2.37;;
2848;SDS011;59355;52.416;13.412;2022-10-16T08:14:39;2.40;;;2.20;;
2848;SDS011;59355;52.416;13.412;2022-10-16T08:17:04;2.63;;;2.40;;
2848;SDS011;59355;52.416;13.412;2022-10-16T08:19:30;2.70;;;2.50;;
2848;SDS011;59355;52.416;13.412;2022-10-16T08:21:56;2.93;;;2.60;;
2848;SDS011;59355;52.416;13.412;2022-10-16T08:24:21;3.50;;;2.50;;
2848;SDS011;59355;52.416;13.412;2022-10-16T08:26:47;2.77;;;2.40;;
2848;SDS011;59355;52.416;13.412;2022-10-16T08:29:13;2.53;;;2.33;;
2848;SDS011;59355;52.416;13.412;2022-10-16T08:31:38;2.30;;;2.10;;
2848;SDS011;59355;52.416;13.412;2022-10-16T08:34:04;3.00;;;2.33;;
2848;SDS011;59355;52.416;13.412;2022-10-16T08:36:29;3.50;;;2.60;;
2848;SDS011;59355;52.416;13.412;2022-10-16T08:38:54;2.60;;;2.40;;
2848;SDS011;59355;52.416;13.412;2022-10-16T08:41:33;2.30;;;2.10;;
2848;SDS011;59355;52.416;13.412;2022-10-16T08:47:13;3.07;;;2.00;;
2848;SDS011;59355;52.416;13.412;2022-10-16T08:49:43;2.20;;;2.00;;
2848;SDS011;59355;52.416;13.412;2022-10-16T08:52:18;2.37;;;2.17;;
2848;SDS011;59355;52.416;13.412;2022-10-16T08:54:45;2.33;;;2.13;;
2848;SDS011;59355;52.416;13.412;2022-10-16T08:57:16;2.60;;;2.40;;
2848;SDS011;59355;52.416;13.412;2022-10-16T08:59:44;2.40;;;2.20;;
2848;SDS011;59355;52.416;13.412;2022-10-16T09:05:09;2.63;;;2.43;;
2848;SDS011;59355;52.416;13.412;2022-10-16T09:13:03;4.03;;;2.20;;
2848;SDS011;59355;52.416;13.412;2022-10-16T09:23:22;2.60;;;2.27;;
2848;SDS011;59355;52.416;13.412;2022-10-16T09:25:51;2.40;;;2.20;;
2848;SDS011;59355;52.416;13.412;2022-10-16T09:28:17;4.00;;;2.57;;
2848;SDS011;59355;52.416;13.412;2022-10-16T09:30:44;2.87;;;2.57;;
2848;SDS011;59355;52.416;13.412;2022-10-16T09:33:15;2.60;;;2.40;;
2848;SDS011;59355;52.416;13.412;2022-10-16T09:35:44;2.43;;;2.23;;
2848;SDS011;59355;52.416;13.412;2022-10-16T09:40:54;4.00;;;2.10;;
2848;SDS011;59355;52.416;13.412;2022-10-16T09:43:22;2.23;;;1.90;;
2848;SDS011;59355;52.416;13.412;2022-10-16T09:45:57;2.60;;;2.03;;
2848;SDS011;59355;52.416;13.412;2022-10-16T09:51:06;2.47;;;2.20;;
2848;SDS011;59355;52.416;13.412;2022-10-16T09:53:43;3.20;;;2.27;;
2848;SDS011;59355;52.416;13.412;2022-10-16T09:56:10;2.90;;;2.27;;
2848;SDS011;59355;52.416;13.412;2022-10-16T09:58:41;2.67;;;2.10;;
2848;SDS011;59355;52.416;13.412;2022-10-16T10:01:11;2.20;;;2.00;;
2848;SDS011;59355;52.416;13.412;2022-10-16T10:03:39;2.20;;;2.00;;
2848;SDS011;59355;52.416;13.412;2022-10-16T10:06:13;2.67;;;2.23;;
2848;SDS011;59355;52.416;13.412;2022-10-16T10:11:42;2.47;;;2.27;;
2848;SDS011;59355;52.416;13.412;2022-10-16T10:16:43;2.17;;;1.80;;
2848;SDS011;59355;52.416;13.412;2022-10-16T10:19:19;2.70;;;2.50;;
2848;SDS011;59355;52.416;13.412;2022-10-16T10:21:46;2.03;;;1.83;;
2848;SDS011;59355;52.416;13.412;2022-10-16T10:24:17;2.80;;;2.60;;
2848;SDS011;59355;52.416;13.412;2022-10-16T10:26:49;3.00;;;1.97;;
2848;SDS011;59355;52.416;13.412;2022-10-16T10:34:50;2.13;;;1.93;;
2848;SDS011;59355;52.416;13.412;2022-10-16T10:43:03;3.10;;;2.03;;
2848;SDS011;59355;52.416;13.412;2022-10-16T10:45:38;1.80;;;1.40;;
2848;SDS011;59355;52.416;13.412;2022-10-16T10:48:17;2.70;;;2.20;;
2848;SDS011;59355;52.416;13.412;2022-10-16T10:50:57;4.33;;;1.80;;
2848;SDS011;59355;52.416;13.412;2022-10-16T10:56:21;1.97;;;1.77;;
2848;SDS011;59355;52.416;13.412;2022-10-16T10:59:03;2.57;;;1.80;;
2848;SDS011;59355;52.416;13.412;2022-10-16T11:01:47;2.00;;;1.77;;
2848;SDS011;59355;52.416;13.412;2022-10-16T11:04:39;2.73;;;2.03;;
2848;SDS011;59355;52.416;13.412;2022-10-16T11:07:33;6.20;;;2.00;;
2848;SDS011;59355;52.416;13.412;2022-10-16T11:10:18;2.13;;;1.93;;
2848;SDS011;59355;52.416;13.412;2022-10-16T11:12:47;7.10;;;2.17;;
2848;SDS011;59355;52.416;13.412;2022-10-16T11:15:28;2.20;;;1.80;;
2848;SDS011;59355;52.416;13.412;2022-10-16T11:18:06;1.90;;;1.70;;
2848;SDS011;59355;52.416;13.412;2022-10-16T11:20:44;2.50;;;1.60;;
2848;SDS011;59355;52.416;13.412;2022-10-16T11:23:16;2.10;;;1.87;;
2848;SDS011;59355;52.416;13.412;2022-10-16T11:25:45;2.40;;;1.70;;
2848;SDS011;59355;52.416;13.412;2022-10-16T11:28:16;2.30;;;1.60;;
2848;SDS011;59355;52.416;13.412;2022-10-16T11:36:20;1.97;;;1.77;;
2848;SDS011;59355;52.416;13.412;2022-10-16T11:38:51;2.00;;;1.80;;
2848;SDS011;59355;52.416;13.412;2022-10-16T11:41:24;2.20;;;1.90;;
2848;SDS011;59355;52.416;13.412;2022-10-16T11:46:40;2.03;;;1.63;;
2848;SDS011;59355;52.416;13.412;2022-10-16T11:49:12;2.00;;;1.60;;
2848;SDS011;59355;52.416;13.412;2022-10-16T11:51:45;2.03;;;1.80;;
2848;SDS011;59355;52.416;13.412;2022-10-16T11:54:22;2.00;;;1.77;;
2848;SDS011;59355;52.416;13.412;2022-10-16T11:56:52;2.03;;;1.83;;
2848;SDS011;59355;52.416;13.412;2022-10-16T12:01:55;2.07;;;1.70;;
2848;SDS011;59355;52.416;13.412;2022-10-16T12:04:26;1.80;;;1.50;;
2848;SDS011;59355;52.416;13.412;2022-10-16T12:07:01;3.40;;;1.77;;
2848;SDS011;59355;52.416;13.412;2022-10-16T12:09:32;2.07;;;1.60;;
2848;SDS011;59355;52.416;13.412;2022-10-16T12:12:00;3.00;;;1.80;;
2848;SDS011;59355;52.416;13.412;2022-10-16T12:14:33;1.60;;;1.50;;
2848;SDS011;59355;52.416;13.412;2022-10-16T12:17:01;4.53;;;1.63;;
2848;SDS011;59355;52.416;13.412;2022-10-16T12:20:01;9.13;;;2.30;;
2848;SDS011;59355;52.416;13.412;2022-10-16T12:22:48;2.03;;;1.50;;
2848;SDS011;59355;52.416;13.412;2022-10-16T12:30:40;2.03;;;1.40;;
2848;SDS011;59355;52.416;13.412;2022-10-16T12:33:20;1.67;;;1.50;;
2848;SDS011;59355;52.416;13.412;2022-10-16T12:35:47;2.80;;;1.47;;
2848;SDS011;59355;52.416;13.412;2022-10-16T12:38:16;1.87;;;1.63;;
2848;SDS011;59355;52.416;13.412;2022-10-16T12:40:43;1.80;;;1.50;;
2848;SDS011;59355;52.416;13.412;2022-10-16T12:43:23;1.90;;;1.77;;
2848;SDS011;59355;52.416;13.412;2022-10-16T12:48:43;1.70;;;1.43;;
2848;SDS011;59355;52.416;13.412;2022-10-16T12:51:23;1.90;;;1.50;;
2848;SDS011;59355;52.416;13.412;2022-10-16T12:56:28;1.93;;;1.67;;
2848;SDS011;59355;52.416;13.412;2022-10-16T13:07:59;4.40;;;1.70;;
2848;SDS011;59355;52.416;13.412;2022-10-16T13:28:03;1.53;;;1.40;;
2848;SDS011;59355;52.416;13.412;2022-10-16T13:30:31;1.87;;;1.57;;
2848;SDS011;59355;52.416;13.412;2022-10-16T13:33:15;2.70;;;1.40;;
2848;SDS011;59355;52.416;13.412;2022-10-16T13:35:49;1.90;;;1.67;;
2848;SDS011;59355;52.416;13.412;2022-10-16T13:38:17;1.83;;;1.50;;
2848;SDS011;59355;52.416;13.412;2022-10-16T13:40:54;2.00;;;1.50;;
2848;SDS011;59355;52.416;13.412;2022-10-16T13:43:42;1.93;;;1.63;;
2848;SDS011;59355;52.416;13.412;2022-10-16T13:46:12;1.90;;;1.33;;
2848;SDS011;59355;52.416;13.412;2022-10-16T13:48:39;2.77;;;1.60;;
2848;SDS011;59355;52.416;13.412;2022-10-16T13:51:06;2.23;;;1.43;;
2848;SDS011;59355;52.416;13.412;2022-10-16T13:53:33;2.23;;;1.40;;
2848;SDS011;59355;52.416;13.412;2022-10-16T13:55:59;2.00;;;1.60;;
2848;SDS011;59355;52.416;13.412;2022-10-16T13:58:31;1.90;;;1.50;;
2848;SDS011;59355;52.416;13.412;2022-10-16T14:01:19;2.57;;;1.60;;
2848;SDS011;59355;52.416;13.412;2022-10-16T14:03:43;2.23;;;1.50;;
2848;SDS011;59355;52.416;13.412;2022-10-16T14:06:13;1.60;;;1.37;;
2848;SDS011;59355;52.416;13.412;2022-10-16T14:09:23;1.67;;;1.40;;
2848;SDS011;59355;52.416;13.412;2022-10-16T14:11:48;3.57;;;2.33;;
2848;SDS011;59355;52.416;13.412;2022-10-16T14:14:17;1.70;;;1.60;;
2848;SDS011;59355;52.416;13.412;2022-10-16T14:16:43;3.30;;;1.70;;
2848;SDS011;59355;52.416;13.412;2022-10-16T14:19:18;2.47;;;1.90;;
2848;SDS011;59355;52.416;13.412;2022-10-16T14:21:45;2.67;;;1.57;;
2848;SDS011;59355;52.416;13.412;2022-10-16T14:24:12;3.47;;;1.80;;
2848;SDS011;59355;52.416;13.412;2022-10-16T14:26:42;2.83;;;1.63;;
2848;SDS011;59355;52.416;13.412;2022-10-16T14:29:15;2.03;;;1.60;;
2848;SDS011;59355;52.416;13.412;2022-10-16T14:31:53;1.93;;;1.60;;
2848;SDS011;59355;52.416;13.412;2022-10-16T14:34:36;3.90;;;3.50;;
2848;SDS011;59355;52.416;13.412;2022-10-16T14:37:22;1.93;;;1.60;;
2848;SDS011;59355;52.416;13.412;2022-10-16T14:39:49;3.00;;;2.10;;
2848;SDS011;59355;52.416;13.412;2022-10-16T14:42:16;2.07;;;1.87;;
2848;SDS011;59355;52.416;13.412;2022-10-16T14:44:43;1.97;;;1.77;;
2848;SDS011;59355;52.416;13.412;2022-10-16T14:47:09;1.93;;;1.73;;
2848;SDS011;59355;52.416;13.412;2022-10-16T14:49:38;1.83;;;1.57;;
2848;SDS011;59355;52.416;13.412;2022-10-16T14:52:07;2.10;;;1.80;;
2848;SDS011;59355;52.416;13.412;2022-10-16T14:54:33;1.80;;;1.50;;
2848;SDS011;59355;52.416;13.412;2022-10-16T14:57:12;2.00;;;1.50;;
2848;SDS011;59355;52.416;13.412;2022-10-16T14:59:50;2.87;;;1.63;;
2848;SDS011;59355;52.416;13.412;2022-10-16T15:02:18;1.73;;;1.63;;
2848;SDS011;59355;52.416;13.412;2022-10-16T15:04:47;1.70;;;1.60;;
2848;SDS011;59355;52.416;13.412;2022-10-16T15:07:12;1.80;;;1.50;;
2848;SDS011;59355;52.416;13.412;2022-10-16T15:09:44;1.80;;;1.50;;
2848;SDS011;59355;52.416;13.412;2022-10-16T15:15:15;2.30;;;1.67;;
2848;SDS011;59355;52.416;13.412;2022-10-16T15:17:47;2.53;;;1.60;;
2848;SDS011;59355;52.416;13.412;2022-10-16T15:20:12;2.00;;;1.73;;
2848;SDS011;59355;52.416;13.412;2022-10-16T15:22:38;2.60;;;1.70;;
2848;SDS011;59355;52.416;13.412;2022-10-16T15:25:09;3.50;;;2.13;;
2848;SDS011;59355;52.416;13.412;2022-10-16T15:27:40;1.87;;;1.67;;
2848;SDS011;59355;52.416;13.412;2022-10-16T15:30:06;2.87;;;1.67;;
2848;SDS011;59355;52.416;13.412;2022-10-16T15:32:32;1.83;;;1.70;;
2848;SDS011;59355;52.416;13.412;2022-10-16T15:34:58;2.67;;;1.73;;
2848;SDS011;59355;52.416;13.412;2022-10-16T15:37:23;2.00;;;1.80;;
2848;SDS011;59355;52.416;13.412;2022-10-16T15:39:49;2.80;;;1.90;;
2848;SDS011;59355;52.416;13.412;2022-10-16T15:42:15;1.63;;;1.53;;
2848;SDS011;59355;52.416;13.412;2022-10-16T15:44:40;2.43;;;1.97;;
2848;SDS011;59355;52.416;13.412;2022-10-16T15:47:06;2.87;;;1.97;;
2848;SDS011;59355;52.416;13.412;2022-10-16T15:49:31;6.40;;;2.23;;
2848;SDS011;59355;52.416;13.412;2022-10-16T15:51:56;2.10;;;1.50;;
2848;SDS011;59355;52.416;13.412;2022-10-16T15:54:22;8.93;;;2.27;;
2848;SDS011;59355;52.416;13.412;2022-10-16T15:56:47;3.60;;;1.90;;
2848;SDS011;59355;52.416;13.412;2022-10-16T15:59:13;2.07;;;1.87;;
2848;SDS011;59355;52.416;13.412;2022-10-16T16:01:39;2.00;;;1.80;;
2848;SDS011;59355;52.416;13.412;2022-10-16T16:04:04;2.00;;;1.80;;
2848;SDS011;59355;52.416;13.412;2022-10-16T16:06:29;2.53;;;2.10;;
2848;SDS011;59355;52.416;13.412;2022-10-16T16:08:55;6.00;;;2.43;;
2848;SDS011;59355;52.416;13.412;2022-10-16T16:11:20;6.03;;;2.30;;
2848;SDS011;59355;52.416;13.412;2022-10-16T16:13:47;2.10;;;1.77;;
2848;SDS011;59355;52.416;13.412;2022-10-16T16:16:14;2.80;;;2.50;;
2848;SDS011;59355;52.416;13.412;2022-10-16T16:18:40;2.40;;;2.20;;
2848;SDS011;59355;52.416;13.412;2022-10-16T16:21:06;6.50;;;4.70;;
2848;SDS011;59355;52.416;13.412;2022-10-16T16:23:31;7.80;;;3.60;;
2848;SDS011;59355;52.416;13.412;2022-10-16T16:26:07;4.00;;;3.60;;
2848;SDS011;59355;52.416;13.412;2022-10-16T16:28:36;4.43;;;3.30;;
2848;SDS011;59355;52.416;13.412;2022-10-16T16:31:02;4.13;;;3.73;;
2848;SDS011;59355;52.416;13.412;2022-10-16T16:33:27;3.10;;;2.80;;
2848;SDS011;59355;52.416;13.412;2022-10-16T16:35:59;4.00;;;3.20;;
2848;SDS011;59355;52.416;13.412;2022-10-16T16:38:27;3.47;;;3.17;;
2848;SDS011;59355;52.416;13.412;2022-10-16T16:40:52;3.07;;;2.60;;
2848;SDS011;59355;52.416;13.412;2022-10-16T16:43:18;3.30;;;3.00;;
2848;SDS011;59355;52.416;13.412;2022-10-16T16:45:44;3.63;;;3.20;;